メインページ
METAR-TAF:

METAR-TAF

空港 :

セムナーン, イラン

緯度: 35-33N, 経度: 053-23E, 海抜: 1171m

現時点の気象観測

当レポートは1時間44分前の08:00(UTC)に作成
の風 2kt
気温 12°C
湿度 62%
気圧 1026 hPa
視程10km以上
高度2500ftの雲はほとんどない

METAR: OIIS 190800Z 10002KT 9999 FEW025 12/05 Q1026

時間: 13:14 (09:44 UTC)


TAF: 見つかりません

4,000以上の空港の気象観測と天気予報(METAR報とTAF報)

利用可能な観測所は地図上に黄色い丸と赤い丸で示す。

丸の上にカーソルを重ねると観測所名を参照できる。

次にクリックすると気象観測と天気予報を参照できる。

マップの切り替え:黒色「×」印の緑ボタンをクリックして拡大、「-」印の緑ボタンをクリックして縮小、緑色の三角印をクリックして隣りの地図に切り替え


METAR-TAF: